createdAt,value
2023-05-16T00:00:13.071Z,1011.33
2023-05-16T00:01:13.092Z,1011.34
2023-05-16T00:02:13.163Z,1011.33
2023-05-16T00:03:13.111Z,1011.37
2023-05-16T00:04:13.243Z,1011.43
2023-05-16T00:05:13.061Z,1011.35
2023-05-16T00:06:13.063Z,1011.36
2023-05-16T00:07:13.046Z,1011.38
2023-05-16T00:08:13.071Z,1011.41
2023-05-16T00:09:13.037Z,1011.42
2023-05-16T00:10:13.036Z,1011.45
2023-05-16T00:11:13.057Z,1011.45
2023-05-16T00:12:13.034Z,1011.44
2023-05-16T00:13:13.028Z,1011.42
2023-05-16T00:14:13.032Z,1011.45
2023-05-16T00:15:13.031Z,1011.46
2023-05-16T00:16:13.082Z,1011.46
2023-05-16T00:17:13.117Z,1011.51
2023-05-16T00:18:13.030Z,1011.50
2023-05-16T00:19:13.084Z,1011.49
2023-05-16T00:20:13.009Z,1011.48
2023-05-16T00:21:13.203Z,1011.53
2023-05-16T00:22:12.997Z,1011.56
2023-05-16T00:23:12.998Z,1011.57
2023-05-16T00:24:13.008Z,1011.55
2023-05-16T00:25:12.989Z,1011.61
2023-05-16T00:26:12.998Z,1011.60
2023-05-16T00:27:13.015Z,1011.62
2023-05-16T00:28:12.980Z,1011.65
2023-05-16T00:29:12.982Z,1011.67
2023-05-16T00:30:12.986Z,1011.67
2023-05-16T00:31:12.971Z,1011.69
2023-05-16T00:32:13.112Z,1011.66
2023-05-16T00:33:13.022Z,1011.69
2023-05-16T00:34:12.998Z,1011.71
2023-05-16T00:35:12.962Z,1011.67
2023-05-16T00:36:12.958Z,1011.69
2023-05-16T00:37:12.948Z,1011.70
2023-05-16T00:38:12.948Z,1011.70
2023-05-16T00:39:12.946Z,1011.66
2023-05-16T00:40:12.944Z,1011.66
2023-05-16T00:41:12.942Z,1011.66
2023-05-16T00:42:12.934Z,1011.65
2023-05-16T00:43:12.951Z,1011.68
2023-05-16T00:44:12.944Z,1011.68
2023-05-16T00:45:12.923Z,1011.69
2023-05-16T00:46:12.940Z,1011.66
2023-05-16T00:47:12.916Z,1011.69
2023-05-16T00:48:12.983Z,1011.74
2023-05-16T00:49:12.915Z,1011.68
2023-05-16T00:50:12.913Z,1011.74
2023-05-16T00:51:12.915Z,1011.71
2023-05-16T00:52:12.906Z,1011.69
2023-05-16T00:53:12.900Z,1011.73
2023-05-16T00:54:12.897Z,1011.73
2023-05-16T00:55:12.890Z,1011.74
2023-05-16T00:56:12.886Z,1011.73
2023-05-16T00:57:12.880Z,1011.75
2023-05-16T00:58:12.880Z,1011.75
2023-05-16T00:59:12.891Z,1011.77
2023-05-16T01:00:12.878Z,1011.71
2023-05-16T01:01:12.882Z,1011.74
2023-05-16T01:02:12.885Z,1011.78
2023-05-16T01:03:13.019Z,1011.71
2023-05-16T01:04:12.857Z,1011.73
2023-05-16T01:05:12.853Z,1011.72
2023-05-16T01:06:12.847Z,1011.75
2023-05-16T01:07:12.847Z,1011.76
2023-05-16T01:08:12.839Z,1011.76
2023-05-16T01:09:12.836Z,1011.71
2023-05-16T01:10:12.832Z,1011.77
2023-05-16T01:11:12.829Z,1011.81
2023-05-16T01:12:12.826Z,1011.82
2023-05-16T01:13:12.821Z,1011.79
2023-05-16T01:14:12.818Z,1011.79
2023-05-16T01:15:13.007Z,1011.76
2023-05-16T01:16:12.835Z,1011.80
2023-05-16T01:17:12.820Z,1011.85
2023-05-16T01:18:12.870Z,1011.83
2023-05-16T01:19:12.923Z,1011.90
2023-05-16T01:20:12.793Z,1011.85
2023-05-16T01:21:12.785Z,1011.85
2023-05-16T01:22:12.785Z,1011.85
2023-05-16T01:23:12.790Z,1011.91
2023-05-16T01:24:12.775Z,1011.88
2023-05-16T01:25:12.770Z,1011.91
2023-05-16T01:26:13.134Z,1011.92
2023-05-16T01:27:12.766Z,1011.92
2023-05-16T01:28:12.769Z,1011.92
2023-05-16T01:29:12.756Z,1011.94
2023-05-16T01:30:12.752Z,1011.99
2023-05-16T01:31:12.850Z,1011.98
2023-05-16T01:32:12.746Z,1011.97
2023-05-16T01:33:12.808Z,1012.01
2023-05-16T01:34:12.735Z,1012.01
2023-05-16T01:35:12.731Z,1012.02
2023-05-16T01:36:12.726Z,1012.01
2023-05-16T01:37:12.722Z,1012.00
2023-05-16T01:38:12.721Z,1012.01
2023-05-16T01:39:12.730Z,1012.02
2023-05-16T01:40:12.729Z,1012.05
2023-05-16T01:41:12.705Z,1012.01
2023-05-16T01:42:12.719Z,1012.03
2023-05-16T01:43:12.697Z,1012.16
2023-05-16T01:44:12.698Z,1012.07
2023-05-16T01:45:12.692Z,1012.08
2023-05-16T01:46:12.742Z,1012.06
2023-05-16T01:47:12.722Z,1012.07
2023-05-16T01:48:12.700Z,1012.08
2023-05-16T01:49:12.683Z,1012.11
2023-05-16T01:50:12.675Z,1012.15
2023-05-16T01:51:12.670Z,1012.12
2023-05-16T01:52:12.664Z,1012.18
2023-05-16T01:53:12.659Z,1012.24
2023-05-16T01:54:12.654Z,1012.18
2023-05-16T01:55:12.647Z,1012.20
2023-05-16T01:56:12.646Z,1012.21
2023-05-16T01:57:12.644Z,1012.22
2023-05-16T01:58:12.634Z,1012.21
2023-05-16T01:59:12.634Z,1012.25
2023-05-16T02:00:12.632Z,1012.25
2023-05-16T02:01:12.656Z,1012.33
2023-05-16T02:02:12.624Z,1012.36
2023-05-16T02:03:12.718Z,1012.34
2023-05-16T02:04:12.776Z,1012.38
2023-05-16T02:05:12.606Z,1012.36
2023-05-16T02:06:12.610Z,1012.40
2023-05-16T02:07:12.615Z,1012.36
2023-05-16T02:08:12.600Z,1012.35
2023-05-16T02:09:12.597Z,1012.40
2023-05-16T02:10:12.602Z,1012.37
2023-05-16T02:11:12.581Z,1012.42
2023-05-16T02:12:12.581Z,1012.41
2023-05-16T02:13:12.573Z,1012.40
2023-05-16T02:14:12.581Z,1012.44
2023-05-16T02:15:12.570Z,1012.45
2023-05-16T02:16:12.612Z,1012.43
2023-05-16T02:17:12.635Z,1012.42
2023-05-16T02:18:12.580Z,1012.46
2023-05-16T02:19:12.633Z,1012.45
2023-05-16T02:20:12.546Z,1012.48
2023-05-16T02:21:12.539Z,1012.49
2023-05-16T02:22:12.542Z,1012.48
2023-05-16T02:23:12.532Z,1012.49
2023-05-16T02:24:12.533Z,1012.54
2023-05-16T02:25:12.524Z,1012.48
2023-05-16T02:26:12.530Z,1012.53
2023-05-16T02:27:12.516Z,1012.59
2023-05-16T02:28:12.526Z,1012.52
2023-05-16T02:29:12.516Z,1012.56
2023-05-16T02:30:12.587Z,1012.56
2023-05-16T02:31:12.964Z,1012.59
2023-05-16T02:32:12.513Z,1012.60
2023-05-16T02:33:12.579Z,1012.64
2023-05-16T02:34:12.492Z,1012.61
2023-05-16T02:35:12.516Z,1012.62
2023-05-16T02:36:12.482Z,1012.61
2023-05-16T02:37:13.411Z,1012.63
2023-05-16T02:38:12.501Z,1012.66
2023-05-16T02:39:12.464Z,1012.65
2023-05-16T02:40:12.470Z,1012.63
2023-05-16T02:41:12.467Z,1012.66
2023-05-16T02:42:12.461Z,1012.69
2023-05-16T02:43:12.455Z,1012.69
2023-05-16T02:44:12.458Z,1012.67
2023-05-16T02:45:12.437Z,1012.71
2023-05-16T02:46:12.462Z,1012.73
2023-05-16T02:47:12.435Z,1012.70
2023-05-16T02:48:12.526Z,1012.70
2023-05-16T02:49:12.419Z,1012.74
2023-05-16T02:50:12.417Z,1012.78
2023-05-16T02:51:12.441Z,1012.86
2023-05-16T02:52:12.409Z,1012.85
2023-05-16T02:53:12.408Z,1012.85
2023-05-16T02:54:12.407Z,1012.90
2023-05-16T02:56:12.392Z,1012.95
2023-05-16T02:57:12.402Z,1012.95
2023-05-16T02:58:12.383Z,1012.95
2023-05-16T02:59:12.378Z,1012.95
2023-05-16T03:00:12.385Z,1012.91
2023-05-16T03:01:12.425Z,1012.96
2023-05-16T03:02:12.685Z,1012.94
2023-05-16T03:03:12.431Z,1012.95
2023-05-16T03:04:12.504Z,1012.98
2023-05-16T03:05:12.365Z,1013.00
2023-05-16T03:06:12.353Z,1013.00
2023-05-16T03:07:12.377Z,1013.04
2023-05-16T03:08:12.349Z,1012.98
2023-05-16T03:09:12.337Z,1013.05
2023-05-16T03:10:12.330Z,1013.03
2023-05-16T03:11:12.342Z,1013.05
2023-05-16T03:12:12.324Z,1013.04
2023-05-16T03:13:12.316Z,1013.08
2023-05-16T03:14:12.311Z,1013.03
2023-05-16T03:15:12.306Z,1013.02
2023-05-16T03:16:12.340Z,1013.00
2023-05-16T03:17:12.338Z,1013.03
2023-05-16T03:18:12.359Z,1013.01
2023-05-16T03:19:12.322Z,1013.05
2023-05-16T03:20:12.293Z,1013.01
2023-05-16T03:21:12.294Z,1013.00
2023-05-16T03:22:12.282Z,1013.00
2023-05-16T03:23:12.306Z,1013.08
2023-05-16T03:24:12.298Z,1013.05
2023-05-16T03:25:12.265Z,1013.07
2023-05-16T03:26:12.278Z,1013.02
2023-05-16T03:27:12.287Z,1013.02
2023-05-16T03:28:14.070Z,1013.07
2023-05-16T03:29:12.249Z,1013.12
2023-05-16T03:30:12.242Z,1013.09
2023-05-16T03:31:12.614Z,1013.11
2023-05-16T03:32:12.343Z,1013.14
2023-05-16T03:33:12.229Z,1013.13
2023-05-16T03:34:12.241Z,1013.10
2023-05-16T03:35:12.218Z,1013.12
2023-05-16T03:36:12.228Z,1013.13
2023-05-16T03:37:12.211Z,1013.19
2023-05-16T03:38:12.210Z,1013.14
2023-05-16T03:39:12.247Z,1013.19
2023-05-16T03:40:12.231Z,1013.22
2023-05-16T03:41:12.198Z,1013.18
2023-05-16T03:42:12.210Z,1013.24
2023-05-16T03:43:12.193Z,1013.26
2023-05-16T03:44:12.186Z,1013.23
2023-05-16T03:45:12.177Z,1013.25
2023-05-16T03:46:12.202Z,1013.26
2023-05-16T03:47:12.174Z,1013.28
2023-05-16T03:48:12.261Z,1013.31
2023-05-16T03:49:12.171Z,1013.30
2023-05-16T03:50:12.198Z,1013.28
2023-05-16T03:51:12.174Z,1013.33
2023-05-16T03:52:12.146Z,1013.30
2023-05-16T03:53:12.154Z,1013.32
2023-05-16T03:54:12.147Z,1013.33
2023-05-16T03:55:12.155Z,1013.37
2023-05-16T03:56:12.146Z,1013.35
2023-05-16T03:57:12.126Z,1013.40
2023-05-16T03:58:12.149Z,1013.37
2023-05-16T03:59:12.111Z,1013.41
2023-05-16T04:00:12.133Z,1013.43
2023-05-16T04:01:12.128Z,1013.44
2023-05-16T04:02:12.265Z,1013.42
2023-05-16T04:03:12.114Z,1013.48
2023-05-16T04:04:12.101Z,1013.46
2023-05-16T04:05:12.141Z,1013.51
2023-05-16T04:06:12.201Z,1013.54
2023-05-16T04:07:12.090Z,1013.51
2023-05-16T04:08:12.083Z,1013.58
2023-05-16T04:09:12.077Z,1013.56
2023-05-16T04:10:12.070Z,1013.61
2023-05-16T04:11:12.095Z,1013.58
2023-05-16T04:12:12.064Z,1013.60
2023-05-16T04:13:12.096Z,1013.60
2023-05-16T04:14:12.075Z,1013.59
2023-05-16T04:15:12.041Z,1013.65
2023-05-16T04:16:12.039Z,1013.65
2023-05-16T04:17:12.114Z,1013.65
2023-05-16T04:18:12.069Z,1013.68
2023-05-16T04:19:12.048Z,1013.68
2023-05-16T04:20:12.022Z,1013.72
2023-05-16T04:21:12.015Z,1013.74
2023-05-16T04:22:12.013Z,1013.72
2023-05-16T04:23:12.028Z,1013.76
2023-05-16T04:24:12.008Z,1013.75
2023-05-16T04:25:12.002Z,1013.78
2023-05-16T04:26:12.011Z,1013.75
2023-05-16T04:27:12.007Z,1013.77
2023-05-16T04:28:11.993Z,1013.74
2023-05-16T04:29:11.993Z,1013.77
2023-05-16T04:30:11.981Z,1013.79
2023-05-16T04:31:12.021Z,1013.82
2023-05-16T04:32:11.973Z,1013.84
2023-05-16T04:33:12.035Z,1013.88
2023-05-16T04:34:11.961Z,1013.87
2023-05-16T04:35:11.960Z,1013.90
2023-05-16T04:36:12.162Z,1013.92
2023-05-16T04:37:11.944Z,1013.92
2023-05-16T04:38:11.949Z,1013.95
2023-05-16T04:39:11.942Z,1013.96
2023-05-16T04:40:11.937Z,1013.97
2023-05-16T04:41:11.925Z,1013.99
2023-05-16T04:42:11.928Z,1013.96
2023-05-16T04:43:11.944Z,1013.98
2023-05-16T04:44:11.914Z,1013.99
2023-05-16T04:45:11.914Z,1014.03
2023-05-16T04:46:11.958Z,1014.01
2023-05-16T04:47:11.901Z,1014.00
2023-05-16T04:48:11.969Z,1014.02
2023-05-16T04:49:11.898Z,1014.07
2023-05-16T04:50:11.893Z,1014.06
2023-05-16T04:51:11.890Z,1014.07
2023-05-16T04:52:11.889Z,1014.08
2023-05-16T04:53:11.874Z,1014.05
2023-05-16T04:54:11.869Z,1014.03
2023-05-16T04:55:11.862Z,1014.13
2023-05-16T04:56:11.859Z,1014.12
2023-05-16T04:57:11.854Z,1014.13
2023-05-16T04:58:11.848Z,1014.13
2023-05-16T04:59:11.958Z,1014.11
2023-05-16T05:00:11.858Z,1014.16
2023-05-16T05:01:11.857Z,1014.09
2023-05-16T05:02:11.859Z,1014.13
2023-05-16T05:03:11.885Z,1014.19
2023-05-16T05:04:11.834Z,1014.16
2023-05-16T05:05:11.846Z,1014.19
2023-05-16T05:06:11.815Z,1014.23
2023-05-16T05:07:11.808Z,1014.26
2023-05-16T05:08:11.802Z,1014.26
2023-05-16T05:09:11.797Z,1014.28
2023-05-16T05:10:11.789Z,1014.25
2023-05-16T05:11:11.789Z,1014.34
2023-05-16T05:12:11.783Z,1014.31
2023-05-16T05:13:11.778Z,1014.35
2023-05-16T05:14:11.772Z,1014.35
2023-05-16T05:15:11.790Z,1014.37
2023-05-16T05:16:11.778Z,1014.42
2023-05-16T05:17:11.790Z,1014.43
2023-05-16T05:18:11.829Z,1014.43
2023-05-16T05:19:11.776Z,1014.43
2023-05-16T05:20:11.758Z,1014.44
2023-05-16T05:21:11.747Z,1014.46
2023-05-16T05:22:11.737Z,1014.47
2023-05-16T05:23:11.733Z,1014.47
2023-05-16T05:24:11.736Z,1014.47
2023-05-16T05:25:11.730Z,1014.48
2023-05-16T05:26:11.713Z,1014.46
2023-05-16T05:27:11.708Z,1014.48
2023-05-16T05:28:11.706Z,1014.51
2023-05-16T05:29:11.702Z,1014.50
2023-05-16T05:30:11.695Z,1014.51
2023-05-16T05:31:11.753Z,1014.53
2023-05-16T05:32:11.799Z,1014.60
2023-05-16T05:33:11.803Z,1014.61
2023-05-16T05:34:11.681Z,1014.58
2023-05-16T05:35:11.680Z,1014.58
2023-05-16T05:36:11.672Z,1014.62
2023-05-16T05:37:11.673Z,1014.63
2023-05-16T05:38:11.660Z,1014.64
2023-05-16T05:39:11.655Z,1014.62
2023-05-16T05:40:11.650Z,1014.65
2023-05-16T05:41:12.051Z,1014.65
2023-05-16T05:42:11.636Z,1014.67
2023-05-16T05:43:11.632Z,1014.69
2023-05-16T05:44:11.627Z,1014.70
2023-05-16T05:45:11.624Z,1014.69
2023-05-16T05:46:11.649Z,1014.70
2023-05-16T05:47:11.649Z,1014.67
2023-05-16T05:48:11.643Z,1014.70
2023-05-16T05:49:11.603Z,1014.61
2023-05-16T05:50:11.602Z,1014.65
2023-05-16T05:51:11.604Z,1014.71
2023-05-16T05:52:11.589Z,1014.72
2023-05-16T05:53:11.585Z,1014.73
2023-05-16T05:54:11.587Z,1014.69
2023-05-16T05:55:11.584Z,1014.76
2023-05-16T05:56:11.572Z,1014.76
2023-05-16T05:57:11.573Z,1014.76
2023-05-16T05:58:11.570Z,1014.75
2023-05-16T05:59:11.561Z,1014.74
2023-05-16T06:00:11.554Z,1014.79
2023-05-16T06:01:11.560Z,1014.79
2023-05-16T06:02:11.570Z,1014.83
2023-05-16T06:03:11.659Z,1014.84
2023-05-16T06:04:11.536Z,1014.85
2023-05-16T06:05:11.711Z,1014.87
2023-05-16T06:06:11.524Z,1014.87
2023-05-16T06:07:11.525Z,1014.87
2023-05-16T06:08:11.530Z,1014.88
2023-05-16T06:09:11.514Z,1014.93
2023-05-16T06:10:11.516Z,1014.89
2023-05-16T06:11:11.515Z,1014.90
2023-05-16T06:12:11.502Z,1014.88
2023-05-16T06:13:11.496Z,1014.93
2023-05-16T06:14:11.507Z,1014.91
2023-05-16T06:15:11.491Z,1014.90
2023-05-16T06:16:11.489Z,1014.97
2023-05-16T06:17:11.535Z,1014.95
2023-05-16T06:18:11.510Z,1015.00
2023-05-16T06:19:11.541Z,1015.02
2023-05-16T06:20:11.464Z,1015.02
2023-05-16T06:21:11.466Z,1015.07
2023-05-16T06:22:11.455Z,1015.01
2023-05-16T06:23:11.449Z,1015.03
2023-05-16T06:24:11.442Z,1015.12
2023-05-16T06:25:11.451Z,1015.10
2023-05-16T06:26:11.433Z,1015.09
2023-05-16T06:27:11.434Z,1015.12
2023-05-16T06:28:11.438Z,1015.13
2023-05-16T06:29:11.421Z,1015.13
2023-05-16T06:30:11.417Z,1015.11
2023-05-16T06:31:11.442Z,1015.09
2023-05-16T06:32:13.365Z,1015.10
2023-05-16T06:33:11.496Z,1015.13
2023-05-16T06:34:11.412Z,1015.15
2023-05-16T06:35:11.421Z,1015.16
2023-05-16T06:36:11.393Z,1015.16
2023-05-16T06:37:11.384Z,1015.14
2023-05-16T06:38:11.382Z,1015.17
2023-05-16T06:39:11.378Z,1015.15
2023-05-16T06:40:11.376Z,1015.18
2023-05-16T06:41:11.776Z,1015.14
2023-05-16T06:42:11.366Z,1015.11
2023-05-16T06:43:11.366Z,1015.16
2023-05-16T06:44:11.366Z,1015.14
2023-05-16T06:45:11.352Z,1015.16
2023-05-16T06:46:11.367Z,1015.16
2023-05-16T06:47:11.349Z,1015.14
2023-05-16T06:48:11.387Z,1015.18
2023-05-16T06:49:11.333Z,1015.20
2023-05-16T06:50:11.336Z,1015.18
2023-05-16T06:51:11.423Z,1015.16
2023-05-16T06:52:11.323Z,1015.16
2023-05-16T06:53:11.316Z,1015.19
2023-05-16T06:54:11.313Z,1015.15
2023-05-16T06:55:11.308Z,1015.19
2023-05-16T06:56:11.308Z,1015.18
2023-05-16T06:57:11.304Z,1015.19
2023-05-16T06:58:11.289Z,1015.21
2023-05-16T06:59:11.289Z,1015.17
2023-05-16T07:00:11.283Z,1015.20
2023-05-16T07:01:11.290Z,1015.20
2023-05-16T07:02:11.277Z,1015.25
2023-05-16T07:03:11.403Z,1015.20
2023-05-16T07:04:11.321Z,1015.26
2023-05-16T07:05:11.266Z,1015.21
2023-05-16T07:06:11.264Z,1015.23
2023-05-16T07:07:11.313Z,1015.20
2023-05-16T07:08:11.268Z,1015.24
2023-05-16T07:09:11.255Z,1015.24
2023-05-16T07:10:11.243Z,1015.24
2023-05-16T07:11:11.239Z,1015.27
2023-05-16T07:12:11.231Z,1015.30
2023-05-16T07:13:11.230Z,1015.27
2023-05-16T07:14:11.226Z,1015.30
2023-05-16T07:15:11.220Z,1015.33
2023-05-16T07:16:11.261Z,1015.32
2023-05-16T07:17:11.298Z,1015.30
2023-05-16T07:18:11.261Z,1015.35
2023-05-16T07:19:11.227Z,1015.34
2023-05-16T07:20:11.196Z,1015.33
2023-05-16T07:21:11.193Z,1015.33
2023-05-16T07:22:11.188Z,1015.33
2023-05-16T07:23:11.307Z,1015.38
2023-05-16T07:24:11.180Z,1015.36
2023-05-16T07:25:11.177Z,1015.37
2023-05-16T07:26:11.175Z,1015.38
2023-05-16T07:27:11.175Z,1015.37
2023-05-16T07:28:11.167Z,1015.38
2023-05-16T07:29:11.166Z,1015.36
2023-05-16T07:30:11.155Z,1015.40
2023-05-16T07:31:11.195Z,1015.38
2023-05-16T07:32:11.316Z,1015.35
2023-05-16T07:33:11.182Z,1015.38
2023-05-16T07:34:11.150Z,1015.46
2023-05-16T07:35:11.140Z,1015.40
2023-05-16T07:36:16.720Z,1015.44
2023-05-16T07:37:11.122Z,1015.42
2023-05-16T07:38:11.117Z,1015.41
2023-05-16T07:39:11.160Z,1015.44
2023-05-16T07:40:11.117Z,1015.43
2023-05-16T07:41:11.109Z,1015.48
2023-05-16T07:42:11.119Z,1015.45
2023-05-16T07:43:11.110Z,1015.50
2023-05-16T07:44:11.106Z,1015.47
2023-05-16T07:45:11.090Z,1015.51
2023-05-16T07:46:11.384Z,1015.48
2023-05-16T07:47:11.085Z,1015.51
2023-05-16T07:48:11.107Z,1015.50
2023-05-16T07:49:11.086Z,1015.47
2023-05-16T07:50:11.084Z,1015.45
2023-05-16T07:51:11.062Z,1015.55
2023-05-16T07:52:11.087Z,1015.54
2023-05-16T07:53:11.056Z,1015.55
2023-05-16T07:54:11.045Z,1015.54
2023-05-16T07:55:11.092Z,1015.53
2023-05-16T07:56:11.042Z,1015.56
2023-05-16T07:57:11.038Z,1015.57
2023-05-16T07:58:11.033Z,1015.58
2023-05-16T07:59:11.082Z,1015.52
2023-05-16T08:00:11.023Z,1015.51
2023-05-16T08:01:11.012Z,1015.47
2023-05-16T08:02:11.069Z,1015.52
2023-05-16T08:03:11.194Z,1015.59
2023-05-16T08:04:10.997Z,1015.61
2023-05-16T08:05:11.078Z,1015.54
2023-05-16T08:06:11.081Z,1015.49
2023-05-16T08:07:10.994Z,1015.54
2023-05-16T08:08:10.999Z,1015.51
2023-05-16T08:09:10.985Z,1015.57
2023-05-16T08:10:13.353Z,1015.50
2023-05-16T08:11:11.033Z,1015.49
2023-05-16T08:12:10.964Z,1015.56
2023-05-16T08:13:10.965Z,1015.52
2023-05-16T08:14:10.963Z,1015.53
2023-05-16T08:15:10.961Z,1015.57
2023-05-16T08:16:10.956Z,1015.54
2023-05-16T08:17:10.963Z,1015.54
2023-05-16T08:18:10.997Z,1015.65
2023-05-16T08:19:10.997Z,1015.68
2023-05-16T08:20:10.947Z,1015.65
2023-05-16T08:21:10.966Z,1015.60
2023-05-16T08:22:10.941Z,1015.61
2023-05-16T08:23:10.940Z,1015.57
2023-05-16T08:24:10.936Z,1015.69
2023-05-16T08:25:10.932Z,1015.65
2023-05-16T08:26:10.927Z,1015.66
2023-05-16T08:27:10.989Z,1015.60
2023-05-16T08:28:10.923Z,1015.64
2023-05-16T08:29:10.913Z,1015.64
2023-05-16T08:30:10.910Z,1015.67
2023-05-16T08:31:10.988Z,1015.69
2023-05-16T08:32:10.905Z,1015.77
2023-05-16T08:33:11.034Z,1015.71
2023-05-16T08:34:10.915Z,1015.64
2023-05-16T08:35:11.003Z,1015.70
2023-05-16T08:36:10.905Z,1015.68
2023-05-16T08:37:10.901Z,1015.67
2023-05-16T08:38:10.888Z,1015.75
2023-05-16T08:39:10.888Z,1015.72
2023-05-16T08:40:10.933Z,1015.65
2023-05-16T08:41:10.895Z,1015.69
2023-05-16T08:42:11.090Z,1015.68
2023-05-16T08:43:10.957Z,1015.65
2023-05-16T08:44:10.873Z,1015.71
2023-05-16T08:45:10.869Z,1015.68
2023-05-16T08:46:10.879Z,1015.60
2023-05-16T08:47:10.955Z,1015.66
2023-05-16T08:48:10.937Z,1015.64
2023-05-16T08:49:10.873Z,1015.59
2023-05-16T08:50:10.865Z,1015.64
2023-05-16T08:51:10.860Z,1015.64
2023-05-16T08:52:10.848Z,1015.66
2023-05-16T08:53:10.856Z,1015.71
2023-05-16T08:54:10.842Z,1015.70
2023-05-16T08:55:11.848Z,1015.68
2023-05-16T08:56:10.841Z,1015.71
2023-05-16T08:57:10.844Z,1015.65
2023-05-16T08:58:10.831Z,1015.68
2023-05-16T08:59:10.879Z,1015.68
2023-05-16T09:00:11.032Z,1015.68
2023-05-16T09:01:10.859Z,1015.66
2023-05-16T09:02:10.817Z,1015.69
2023-05-16T09:03:10.826Z,1015.64
2023-05-16T09:04:10.858Z,1015.63
2023-05-16T09:05:10.805Z,1015.67
2023-05-16T09:06:10.807Z,1015.66
2023-05-16T09:07:10.798Z,1015.65
2023-05-16T09:08:10.801Z,1015.66
2023-05-16T09:09:10.792Z,1015.64
2023-05-16T09:10:10.827Z,1015.66
2023-05-16T09:11:10.787Z,1015.65
2023-05-16T09:12:10.785Z,1015.62
2023-05-16T09:13:10.782Z,1015.58
2023-05-16T09:14:10.810Z,1015.57
2023-05-16T09:15:10.989Z,1015.57
2023-05-16T09:16:10.770Z,1015.59
2023-05-16T09:17:12.475Z,1015.59
2023-05-16T09:18:10.784Z,1015.56
2023-05-16T09:19:10.782Z,1015.58
2023-05-16T09:20:10.804Z,1015.55
2023-05-16T09:21:10.754Z,1015.59
2023-05-16T09:22:10.751Z,1015.58
2023-05-16T09:23:10.746Z,1015.60
2023-05-16T09:24:10.747Z,1015.52
2023-05-16T09:25:21.791Z,1015.58
2023-05-16T09:26:10.737Z,1015.59
2023-05-16T09:27:10.732Z,1015.61
2023-05-16T09:28:10.728Z,1015.61
2023-05-16T09:29:10.726Z,1015.61
2023-05-16T09:30:10.720Z,1015.62
2023-05-16T09:31:10.829Z,1015.60
2023-05-16T09:32:10.732Z,1015.62
2023-05-16T09:33:10.744Z,1015.58
2023-05-16T09:34:10.706Z,1015.64
2023-05-16T09:35:10.704Z,1015.61
2023-05-16T09:36:10.709Z,1015.64
2023-05-16T09:37:10.706Z,1015.61
2023-05-16T09:38:10.696Z,1015.62
2023-05-16T09:39:10.687Z,1015.61
2023-05-16T09:40:10.694Z,1015.61
2023-05-16T09:41:10.682Z,1015.56
2023-05-16T09:42:10.886Z,1015.61
2023-05-16T09:43:10.683Z,1015.58
2023-05-16T09:44:10.675Z,1015.58
2023-05-16T09:45:10.687Z,1015.55
2023-05-16T09:46:10.718Z,1015.55
2023-05-16T09:47:10.725Z,1015.55
2023-05-16T09:48:10.719Z,1015.51
2023-05-16T09:49:10.648Z,1015.56
2023-05-16T09:50:10.659Z,1015.52
2023-05-16T09:51:10.653Z,1015.49
2023-05-16T09:52:10.644Z,1015.51
2023-05-16T09:53:10.636Z,1015.47
2023-05-16T09:54:10.649Z,1015.56
2023-05-16T09:55:10.639Z,1015.55
2023-05-16T09:56:10.625Z,1015.57
2023-05-16T09:57:10.628Z,1015.55
2023-05-16T09:58:10.655Z,1015.56
2023-05-16T09:59:10.616Z,1015.55
2023-05-16T10:00:10.617Z,1015.52
2023-05-16T10:01:10.618Z,1015.57
2023-05-16T10:02:10.716Z,1015.55
2023-05-16T10:03:10.749Z,1015.54
2023-05-16T10:04:10.701Z,1015.53
2023-05-16T10:05:10.589Z,1015.54
2023-05-16T10:06:10.604Z,1015.49
2023-05-16T10:07:10.592Z,1015.51
2023-05-16T10:08:10.589Z,1015.45
2023-05-16T10:09:10.590Z,1015.44
2023-05-16T10:10:10.581Z,1015.44
2023-05-16T10:11:10.575Z,1015.50
2023-05-16T10:12:10.567Z,1015.49
2023-05-16T10:13:10.574Z,1015.50
2023-05-16T10:14:10.562Z,1015.49
2023-05-16T10:15:10.560Z,1015.45
2023-05-16T10:16:10.577Z,1015.47
2023-05-16T10:17:10.547Z,1015.41
2023-05-16T10:18:10.573Z,1015.41
2023-05-16T10:19:10.717Z,1015.43
2023-05-16T10:20:10.548Z,1015.49
2023-05-16T10:21:11.627Z,1015.47
2023-05-16T10:22:10.534Z,1015.44
2023-05-16T10:23:10.527Z,1015.45
2023-05-16T10:24:10.524Z,1015.52
2023-05-16T10:25:10.538Z,1015.51
2023-05-16T10:26:10.516Z,1015.48
2023-05-16T10:27:10.510Z,1015.56
2023-05-16T10:28:10.515Z,1015.55
2023-05-16T10:29:10.511Z,1015.54
2023-05-16T10:30:10.504Z,1015.55
2023-05-16T10:31:10.499Z,1015.53
2023-05-16T10:32:10.563Z,1015.51
2023-05-16T10:33:10.526Z,1015.47
2023-05-16T10:34:10.492Z,1015.57
2023-05-16T10:35:10.549Z,1015.54
2023-05-16T10:36:10.483Z,1015.49
2023-05-16T10:37:10.484Z,1015.56
2023-05-16T10:38:10.482Z,1015.62
2023-05-16T10:39:10.472Z,1015.56
2023-05-16T10:40:10.469Z,1015.50
2023-05-16T10:41:10.460Z,1015.52
2023-05-16T10:42:10.859Z,1015.51
2023-05-16T10:43:10.456Z,1015.54
2023-05-16T10:44:10.451Z,1015.54
2023-05-16T10:45:10.443Z,1015.50
2023-05-16T10:46:10.484Z,1015.50
2023-05-16T10:47:10.444Z,1015.47
2023-05-16T10:48:10.499Z,1015.50
2023-05-16T10:49:10.437Z,1015.49
2023-05-16T10:50:10.436Z,1015.46
2023-05-16T10:51:10.492Z,1015.47
2023-05-16T10:52:10.431Z,1015.44
2023-05-16T10:53:10.425Z,1015.42
2023-05-16T10:54:10.452Z,1015.44
2023-05-16T10:55:10.415Z,1015.49
2023-05-16T10:56:10.412Z,1015.50
2023-05-16T10:57:10.403Z,1015.48
2023-05-16T10:58:10.411Z,1015.46
2023-05-16T10:59:10.411Z,1015.47
2023-05-16T11:00:10.399Z,1015.50
2023-05-16T11:01:10.419Z,1015.51
2023-05-16T11:02:10.425Z,1015.57
2023-05-16T11:03:10.472Z,1015.55
2023-05-16T11:04:10.446Z,1015.56
2023-05-16T11:05:10.379Z,1015.59
2023-05-16T11:06:10.376Z,1015.59
2023-05-16T11:07:10.451Z,1015.66
2023-05-16T11:08:10.385Z,1015.69
2023-05-16T11:09:10.574Z,1015.67
2023-05-16T11:10:10.369Z,1015.69
2023-05-16T11:11:10.360Z,1015.70
2023-05-16T11:12:10.360Z,1015.66
2023-05-16T11:13:10.377Z,1015.67
2023-05-16T11:14:10.351Z,1015.71
2023-05-16T11:15:10.347Z,1015.74
2023-05-16T11:16:10.345Z,1015.68
2023-05-16T11:17:10.398Z,1015.73
2023-05-16T11:18:10.418Z,1015.75
2023-05-16T11:19:10.374Z,1015.74
2023-05-16T11:20:10.349Z,1015.75
2023-05-16T11:21:10.325Z,1015.79
2023-05-16T11:22:10.342Z,1015.80
2023-05-16T11:23:10.413Z,1015.75
2023-05-16T11:24:10.320Z,1015.76
2023-05-16T11:25:10.312Z,1015.71
2023-05-16T11:26:10.314Z,1015.77
2023-05-16T11:27:10.308Z,1015.71
2023-05-16T11:28:10.322Z,1015.73
2023-05-16T11:29:10.313Z,1015.70
2023-05-16T11:30:10.304Z,1015.68
2023-05-16T11:31:10.323Z,1015.68
2023-05-16T11:32:10.287Z,1015.63
2023-05-16T11:33:10.347Z,1015.65
2023-05-16T11:34:10.281Z,1015.58
2023-05-16T11:35:12.209Z,1015.59
2023-05-16T11:37:10.272Z,1015.56
2023-05-16T11:38:10.270Z,1015.57
2023-05-16T11:39:10.367Z,1015.49
2023-05-16T11:40:10.268Z,1015.49
2023-05-16T11:41:10.263Z,1015.51
2023-05-16T11:42:10.605Z,1015.49
2023-05-16T11:43:10.250Z,1015.50
2023-05-16T11:44:10.258Z,1015.55
2023-05-16T11:45:10.259Z,1015.55
2023-05-16T11:46:10.255Z,1015.54
2023-05-16T11:47:10.353Z,1015.54
2023-05-16T11:48:12.829Z,1015.55
2023-05-16T11:49:10.232Z,1015.53
2023-05-16T11:50:10.236Z,1015.57
2023-05-16T11:51:10.231Z,1015.59
2023-05-16T11:52:10.231Z,1015.56
2023-05-16T11:53:10.224Z,1015.54
2023-05-16T11:54:10.234Z,1015.60
2023-05-16T11:55:10.274Z,1015.55
2023-05-16T11:56:10.223Z,1015.49
2023-05-16T11:57:10.226Z,1015.51
2023-05-16T11:58:10.340Z,1015.57
2023-05-16T11:59:10.204Z,1015.56
2023-05-16T12:00:10.202Z,1015.56
2023-05-16T12:01:10.207Z,1015.58
2023-05-16T12:02:10.201Z,1015.63
2023-05-16T12:03:10.387Z,1015.60
2023-05-16T12:04:10.344Z,1015.60
2023-05-16T12:05:10.437Z,1015.58
2023-05-16T12:06:10.180Z,1015.60
2023-05-16T12:07:10.381Z,1015.59